sensor_id;sensor_type;location;lat;lon;timestamp;P1;durP1;ratioP1;P2;durP2;ratioP2
37647;SDS011;23490;53.656;10.076;2023-03-24T00:02:02;9.15;;;5.00;;
37647;SDS011;23490;53.656;10.076;2023-03-24T00:04:28;12.18;;;4.53;;
37647;SDS011;23490;53.656;10.076;2023-03-24T00:06:54;7.95;;;4.50;;
37647;SDS011;23490;53.656;10.076;2023-03-24T00:09:19;10.90;;;5.03;;
37647;SDS011;23490;53.656;10.076;2023-03-24T00:11:45;8.27;;;4.57;;
37647;SDS011;23490;53.656;10.076;2023-03-24T00:14:11;10.23;;;4.55;;
37647;SDS011;23490;53.656;10.076;2023-03-24T00:16:39;14.35;;;5.63;;
37647;SDS011;23490;53.656;10.076;2023-03-24T00:19:10;9.70;;;4.20;;
37647;SDS011;23490;53.656;10.076;2023-03-24T00:21:39;8.95;;;3.97;;
37647;SDS011;23490;53.656;10.076;2023-03-24T00:24:06;7.53;;;3.88;;
37647;SDS011;23490;53.656;10.076;2023-03-24T00:26:32;7.85;;;3.97;;
37647;SDS011;23490;53.656;10.076;2023-03-24T00:28:58;9.55;;;3.63;;
37647;SDS011;23490;53.656;10.076;2023-03-24T00:31:24;9.93;;;4.30;;
37647;SDS011;23490;53.656;10.076;2023-03-24T00:33:49;7.57;;;4.43;;
37647;SDS011;23490;53.656;10.076;2023-03-24T00:36:15;10.55;;;4.57;;
37647;SDS011;23490;53.656;10.076;2023-03-24T00:38:44;11.00;;;4.10;;
37647;SDS011;23490;53.656;10.076;2023-03-24T00:41:11;10.25;;;4.50;;
37647;SDS011;23490;53.656;10.076;2023-03-24T00:43:37;6.80;;;3.83;;
37647;SDS011;23490;53.656;10.076;2023-03-24T00:46:07;10.80;;;4.10;;
37647;SDS011;23490;53.656;10.076;2023-03-24T00:48:35;10.50;;;3.65;;
37647;SDS011;23490;53.656;10.076;2023-03-24T00:51:03;6.80;;;3.80;;
37647;SDS011;23490;53.656;10.076;2023-03-24T00:53:32;8.10;;;4.20;;
37647;SDS011;23490;53.656;10.076;2023-03-24T00:56:00;7.60;;;3.80;;
37647;SDS011;23490;53.656;10.076;2023-03-24T00:58:25;7.57;;;3.38;;
37647;SDS011;23490;53.656;10.076;2023-03-24T01:00:55;7.43;;;3.53;;
37647;SDS011;23490;53.656;10.076;2023-03-24T01:03:22;10.45;;;4.60;;
37647;SDS011;23490;53.656;10.076;2023-03-24T01:05:51;9.10;;;3.30;;
37647;SDS011;23490;53.656;10.076;2023-03-24T01:08:25;9.45;;;3.53;;
37647;SDS011;23490;53.656;10.076;2023-03-24T01:10:52;5.95;;;3.45;;
37647;SDS011;23490;53.656;10.076;2023-03-24T01:13:23;9.50;;;3.42;;
37647;SDS011;23490;53.656;10.076;2023-03-24T01:15:50;8.10;;;3.03;;
37647;SDS011;23490;53.656;10.076;2023-03-24T01:18:16;11.05;;;3.75;;
37647;SDS011;23490;53.656;10.076;2023-03-24T01:20:42;7.80;;;3.88;;
37647;SDS011;23490;53.656;10.076;2023-03-24T01:23:10;5.97;;;3.28;;
37647;SDS011;23490;53.656;10.076;2023-03-24T01:25:37;9.93;;;4.18;;
37647;SDS011;23490;53.656;10.076;2023-03-24T01:28:04;6.10;;;3.40;;
37647;SDS011;23490;53.656;10.076;2023-03-24T01:30:30;8.90;;;3.13;;
37647;SDS011;23490;53.656;10.076;2023-03-24T01:32:56;9.38;;;3.17;;
37647;SDS011;23490;53.656;10.076;2023-03-24T01:35:22;7.47;;;3.17;;
37647;SDS011;23490;53.656;10.076;2023-03-24T01:37:52;5.28;;;3.00;;
37647;SDS011;23490;53.656;10.076;2023-03-24T01:40:18;6.47;;;3.42;;
37647;SDS011;23490;53.656;10.076;2023-03-24T01:42:47;5.80;;;3.35;;
37647;SDS011;23490;53.656;10.076;2023-03-24T01:48:02;5.80;;;2.92;;
37647;SDS011;23490;53.656;10.076;2023-03-24T01:50:28;8.27;;;3.53;;
37647;SDS011;23490;53.656;10.076;2023-03-24T01:52:55;6.80;;;3.42;;
37647;SDS011;23490;53.656;10.076;2023-03-24T01:55:20;6.88;;;3.30;;
37647;SDS011;23490;53.656;10.076;2023-03-24T01:57:48;7.72;;;3.03;;
37647;SDS011;23490;53.656;10.076;2023-03-24T02:02:45;8.23;;;3.28;;
37647;SDS011;23490;53.656;10.076;2023-03-24T02:05:19;7.97;;;3.50;;
37647;SDS011;23490;53.656;10.076;2023-03-24T02:08:04;8.55;;;3.03;;
37647;SDS011;23490;53.656;10.076;2023-03-24T02:10:34;6.22;;;3.28;;
37647;SDS011;23490;53.656;10.076;2023-03-24T02:13:01;10.43;;;3.08;;
37647;SDS011;23490;53.656;10.076;2023-03-24T02:15:28;6.97;;;3.08;;
37647;SDS011;23490;53.656;10.076;2023-03-24T02:17:59;6.90;;;3.63;;
37647;SDS011;23490;53.656;10.076;2023-03-24T02:23:46;6.72;;;3.30;;
37647;SDS011;23490;53.656;10.076;2023-03-24T02:31:45;7.10;;;3.28;;
37647;SDS011;23490;53.656;10.076;2023-03-24T02:40:03;6.75;;;3.42;;
37647;SDS011;23490;53.656;10.076;2023-03-24T02:45:34;5.95;;;3.15;;
37647;SDS011;23490;53.656;10.076;2023-03-24T02:48:06;10.35;;;3.63;;
37647;SDS011;23490;53.656;10.076;2023-03-24T02:56:15;8.35;;;3.65;;
37647;SDS011;23490;53.656;10.076;2023-03-24T02:59:06;9.80;;;3.50;;
37647;SDS011;23490;53.656;10.076;2023-03-24T03:01:47;8.50;;;3.55;;
37647;SDS011;23490;53.656;10.076;2023-03-24T03:04:20;10.02;;;3.40;;
37647;SDS011;23490;53.656;10.076;2023-03-24T03:06:57;10.93;;;4.15;;
37647;SDS011;23490;53.656;10.076;2023-03-24T03:09:26;10.02;;;3.78;;
37647;SDS011;23490;53.656;10.076;2023-03-24T03:11:54;7.10;;;2.92;;
37647;SDS011;23490;53.656;10.076;2023-03-24T03:16:57;7.93;;;3.53;;
37647;SDS011;23490;53.656;10.076;2023-03-24T03:19:30;7.93;;;3.25;;
37647;SDS011;23490;53.656;10.076;2023-03-24T03:22:07;8.40;;;3.50;;
37647;SDS011;23490;53.656;10.076;2023-03-24T03:24:38;10.30;;;3.60;;
37647;SDS011;23490;53.656;10.076;2023-03-24T03:27:06;10.70;;;3.60;;
37647;SDS011;23490;53.656;10.076;2023-03-24T03:29:44;6.82;;;3.40;;
37647;SDS011;23490;53.656;10.076;2023-03-24T03:32:16;9.02;;;3.60;;
37647;SDS011;23490;53.656;10.076;2023-03-24T03:34:54;8.60;;;3.60;;
37647;SDS011;23490;53.656;10.076;2023-03-24T03:40:03;7.65;;;3.70;;
37647;SDS011;23490;53.656;10.076;2023-03-24T03:42:33;7.65;;;4.38;;
37647;SDS011;23490;53.656;10.076;2023-03-24T03:44:59;10.13;;;4.40;;
37647;SDS011;23490;53.656;10.076;2023-03-24T03:47:25;14.55;;;4.75;;
37647;SDS011;23490;53.656;10.076;2023-03-24T03:49:51;9.80;;;4.45;;
37647;SDS011;23490;53.656;10.076;2023-03-24T03:52:16;8.13;;;4.25;;
37647;SDS011;23490;53.656;10.076;2023-03-24T03:54:43;12.60;;;4.55;;
37647;SDS011;23490;53.656;10.076;2023-03-24T03:57:09;9.10;;;4.07;;
37647;SDS011;23490;53.656;10.076;2023-03-24T03:59:37;11.23;;;4.72;;
37647;SDS011;23490;53.656;10.076;2023-03-24T04:02:13;7.75;;;3.92;;
37647;SDS011;23490;53.656;10.076;2023-03-24T04:05:08;12.70;;;4.38;;
37647;SDS011;23490;53.656;10.076;2023-03-24T04:16:36;10.38;;;5.13;;
37647;SDS011;23490;53.656;10.076;2023-03-24T04:19:29;10.43;;;5.13;;
37647;SDS011;23490;53.656;10.076;2023-03-24T04:25:11;8.20;;;4.93;;
37647;SDS011;23490;53.656;10.076;2023-03-24T04:30:37;7.32;;;4.38;;
37647;SDS011;23490;53.656;10.076;2023-03-24T04:36:06;9.98;;;4.90;;
37647;SDS011;23490;53.656;10.076;2023-03-24T04:38:44;6.32;;;4.03;;
37647;SDS011;23490;53.656;10.076;2023-03-24T04:41:12;8.00;;;4.40;;
37647;SDS011;23490;53.656;10.076;2023-03-24T04:43:41;8.60;;;4.90;;
37647;SDS011;23490;53.656;10.076;2023-03-24T04:46:08;10.93;;;4.85;;
37647;SDS011;23490;53.656;10.076;2023-03-24T04:48:34;7.07;;;4.32;;
37647;SDS011;23490;53.656;10.076;2023-03-24T04:51:00;9.05;;;4.90;;
37647;SDS011;23490;53.656;10.076;2023-03-24T04:53:27;8.35;;;4.72;;
37647;SDS011;23490;53.656;10.076;2023-03-24T04:58:36;9.48;;;5.35;;
37647;SDS011;23490;53.656;10.076;2023-03-24T05:01:02;9.77;;;4.35;;
37647;SDS011;23490;53.656;10.076;2023-03-24T05:03:30;7.90;;;4.93;;
37647;SDS011;23490;53.656;10.076;2023-03-24T05:05:55;10.10;;;5.10;;
37647;SDS011;23490;53.656;10.076;2023-03-24T05:08:21;8.27;;;4.85;;
37647;SDS011;23490;53.656;10.076;2023-03-24T05:10:47;12.55;;;4.80;;
37647;SDS011;23490;53.656;10.076;2023-03-24T05:13:12;7.57;;;4.43;;
37647;SDS011;23490;53.656;10.076;2023-03-24T05:15:41;8.02;;;4.47;;
37647;SDS011;23490;53.656;10.076;2023-03-24T05:18:06;8.50;;;5.20;;
37647;SDS011;23490;53.656;10.076;2023-03-24T05:20:33;7.22;;;4.13;;
37647;SDS011;23490;53.656;10.076;2023-03-24T05:22:58;8.05;;;4.85;;
37647;SDS011;23490;53.656;10.076;2023-03-24T05:25:23;7.93;;;5.00;;
37647;SDS011;23490;53.656;10.076;2023-03-24T05:27:50;8.43;;;4.57;;
37647;SDS011;23490;53.656;10.076;2023-03-24T05:30:16;10.10;;;4.82;;
37647;SDS011;23490;53.656;10.076;2023-03-24T05:32:44;7.65;;;4.68;;
37647;SDS011;23490;53.656;10.076;2023-03-24T05:35:09;9.88;;;5.15;;
37647;SDS011;23490;53.656;10.076;2023-03-24T05:37:34;7.30;;;4.30;;
37647;SDS011;23490;53.656;10.076;2023-03-24T05:40:00;7.43;;;4.35;;
37647;SDS011;23490;53.656;10.076;2023-03-24T05:42:25;8.55;;;4.75;;
37647;SDS011;23490;53.656;10.076;2023-03-24T05:44:50;8.90;;;5.13;;
37647;SDS011;23490;53.656;10.076;2023-03-24T05:47:16;7.53;;;3.95;;
37647;SDS011;23490;53.656;10.076;2023-03-24T05:49:44;7.22;;;4.47;;
37647;SDS011;23490;53.656;10.076;2023-03-24T05:52:11;9.45;;;5.00;;
37647;SDS011;23490;53.656;10.076;2023-03-24T05:54:37;6.55;;;4.10;;
37647;SDS011;23490;53.656;10.076;2023-03-24T05:57:05;8.65;;;4.25;;
37647;SDS011;23490;53.656;10.076;2023-03-24T05:59:32;9.77;;;4.32;;
37647;SDS011;23490;53.656;10.076;2023-03-24T06:01:58;6.80;;;3.85;;
37647;SDS011;23490;53.656;10.076;2023-03-24T06:04:24;7.18;;;4.13;;
37647;SDS011;23490;53.656;10.076;2023-03-24T06:06:53;6.40;;;4.23;;
37647;SDS011;23490;53.656;10.076;2023-03-24T06:09:23;7.57;;;3.88;;
37647;SDS011;23490;53.656;10.076;2023-03-24T06:11:53;8.38;;;4.35;;
37647;SDS011;23490;53.656;10.076;2023-03-24T06:14:18;5.97;;;3.65;;
37647;SDS011;23490;53.656;10.076;2023-03-24T06:16:43;6.57;;;4.18;;
37647;SDS011;23490;53.656;10.076;2023-03-24T06:19:09;6.50;;;3.70;;
37647;SDS011;23490;53.656;10.076;2023-03-24T06:21:34;6.00;;;4.05;;
37647;SDS011;23490;53.656;10.076;2023-03-24T06:24:00;6.65;;;4.30;;
37647;SDS011;23490;53.656;10.076;2023-03-24T06:26:27;7.70;;;4.18;;
37647;SDS011;23490;53.656;10.076;2023-03-24T06:28:55;8.98;;;4.05;;
37647;SDS011;23490;53.656;10.076;2023-03-24T06:31:20;5.55;;;3.67;;
37647;SDS011;23490;53.656;10.076;2023-03-24T06:33:47;6.75;;;3.35;;
37647;SDS011;23490;53.656;10.076;2023-03-24T06:36:12;6.25;;;3.20;;
37647;SDS011;23490;53.656;10.076;2023-03-24T06:38:39;5.07;;;3.30;;
37647;SDS011;23490;53.656;10.076;2023-03-24T06:41:07;5.68;;;3.67;;
37647;SDS011;23490;53.656;10.076;2023-03-24T06:43:33;5.78;;;3.17;;
37647;SDS011;23490;53.656;10.076;2023-03-24T06:45:58;6.53;;;3.50;;
37647;SDS011;23490;53.656;10.076;2023-03-24T06:48:25;4.95;;;3.05;;
37647;SDS011;23490;53.656;10.076;2023-03-24T06:50:51;5.38;;;3.25;;
37647;SDS011;23490;53.656;10.076;2023-03-24T06:53:17;5.55;;;3.13;;
37647;SDS011;23490;53.656;10.076;2023-03-24T06:55:47;5.15;;;3.42;;
37647;SDS011;23490;53.656;10.076;2023-03-24T06:58:13;5.28;;;2.80;;
37647;SDS011;23490;53.656;10.076;2023-03-24T07:00:40;5.88;;;2.97;;
37647;SDS011;23490;53.656;10.076;2023-03-24T07:03:05;7.80;;;3.67;;
37647;SDS011;23490;53.656;10.076;2023-03-24T07:05:32;5.10;;;3.25;;
37647;SDS011;23490;53.656;10.076;2023-03-24T07:10:27;5.32;;;3.40;;
37647;SDS011;23490;53.656;10.076;2023-03-24T07:12:52;4.22;;;3.10;;
37647;SDS011;23490;53.656;10.076;2023-03-24T07:15:18;4.85;;;2.60;;
37647;SDS011;23490;53.656;10.076;2023-03-24T07:17:43;4.00;;;2.47;;
37647;SDS011;23490;53.656;10.076;2023-03-24T07:20:09;4.45;;;2.60;;
37647;SDS011;23490;53.656;10.076;2023-03-24T07:22:35;3.45;;;2.30;;
37647;SDS011;23490;53.656;10.076;2023-03-24T07:25:01;3.97;;;2.35;;
37647;SDS011;23490;53.656;10.076;2023-03-24T07:27:29;5.53;;;3.03;;
37647;SDS011;23490;53.656;10.076;2023-03-24T07:29:57;3.70;;;2.30;;
37647;SDS011;23490;53.656;10.076;2023-03-24T07:32:23;5.47;;;2.40;;
37647;SDS011;23490;53.656;10.076;2023-03-24T07:34:49;4.15;;;2.22;;
37647;SDS011;23490;53.656;10.076;2023-03-24T07:37:14;4.60;;;2.00;;
37647;SDS011;23490;53.656;10.076;2023-03-24T07:39:40;4.32;;;2.10;;
37647;SDS011;23490;53.656;10.076;2023-03-24T07:42:06;3.05;;;1.73;;
37647;SDS011;23490;53.656;10.076;2023-03-24T07:44:31;4.75;;;1.80;;
37647;SDS011;23490;53.656;10.076;2023-03-24T07:46:57;4.28;;;1.48;;
37647;SDS011;23490;53.656;10.076;2023-03-24T07:49:22;2.67;;;1.20;;
37647;SDS011;23490;53.656;10.076;2023-03-24T07:51:47;4.60;;;1.08;;
37647;SDS011;23490;53.656;10.076;2023-03-24T07:54:13;2.47;;;0.88;;
37647;SDS011;23490;53.656;10.076;2023-03-24T07:56:38;2.65;;;1.00;;
37647;SDS011;23490;53.656;10.076;2023-03-24T07:59:04;4.13;;;1.13;;
37647;SDS011;23490;53.656;10.076;2023-03-24T08:01:30;2.53;;;1.00;;
37647;SDS011;23490;53.656;10.076;2023-03-24T08:03:56;6.68;;;1.48;;
37647;SDS011;23490;53.656;10.076;2023-03-24T08:06:22;3.72;;;0.90;;
37647;SDS011;23490;53.656;10.076;2023-03-24T08:08:47;6.57;;;1.30;;
37647;SDS011;23490;53.656;10.076;2023-03-24T08:11:12;5.28;;;1.10;;
37647;SDS011;23490;53.656;10.076;2023-03-24T08:13:38;8.05;;;1.63;;
37647;SDS011;23490;53.656;10.076;2023-03-24T08:16:03;5.72;;;1.40;;
37647;SDS011;23490;53.656;10.076;2023-03-24T08:18:29;4.32;;;0.95;;
37647;SDS011;23490;53.656;10.076;2023-03-24T08:20:59;6.75;;;1.55;;
37647;SDS011;23490;53.656;10.076;2023-03-24T08:23:26;6.20;;;2.08;;
37647;SDS011;23490;53.656;10.076;2023-03-24T08:25:52;6.63;;;1.25;;
37647;SDS011;23490;53.656;10.076;2023-03-24T08:28:17;4.90;;;1.25;;
37647;SDS011;23490;53.656;10.076;2023-03-24T08:30:43;5.50;;;1.00;;
37647;SDS011;23490;53.656;10.076;2023-03-24T08:33:09;4.47;;;1.35;;
37647;SDS011;23490;53.656;10.076;2023-03-24T08:35:37;8.20;;;1.30;;
37647;SDS011;23490;53.656;10.076;2023-03-24T08:38:03;4.90;;;1.10;;
37647;SDS011;23490;53.656;10.076;2023-03-24T08:40:31;5.47;;;1.23;;
37647;SDS011;23490;53.656;10.076;2023-03-24T08:43:00;4.25;;;1.48;;
37647;SDS011;23490;53.656;10.076;2023-03-24T08:45:28;5.18;;;1.30;;
37647;SDS011;23490;53.656;10.076;2023-03-24T08:47:57;5.30;;;1.60;;
37647;SDS011;23490;53.656;10.076;2023-03-24T08:50:28;9.15;;;1.65;;
37647;SDS011;23490;53.656;10.076;2023-03-24T08:52:56;6.75;;;1.23;;
37647;SDS011;23490;53.656;10.076;2023-03-24T08:55:23;2.45;;;0.73;;
37647;SDS011;23490;53.656;10.076;2023-03-24T08:57:49;5.80;;;1.63;;
37647;SDS011;23490;53.656;10.076;2023-03-24T09:00:15;7.10;;;1.58;;
37647;SDS011;23490;53.656;10.076;2023-03-24T09:02:49;7.15;;;1.58;;
37647;SDS011;23490;53.656;10.076;2023-03-24T09:05:17;3.60;;;1.10;;
37647;SDS011;23490;53.656;10.076;2023-03-24T09:07:44;7.97;;;1.52;;
37647;SDS011;23490;53.656;10.076;2023-03-24T09:10:12;6.60;;;1.83;;
37647;SDS011;23490;53.656;10.076;2023-03-24T09:12:39;5.28;;;1.50;;
37647;SDS011;23490;53.656;10.076;2023-03-24T09:15:05;3.90;;;1.20;;
37647;SDS011;23490;53.656;10.076;2023-03-24T09:17:33;6.68;;;1.80;;
37647;SDS011;23490;53.656;10.076;2023-03-24T09:19:59;8.00;;;1.38;;
37647;SDS011;23490;53.656;10.076;2023-03-24T09:22:26;7.30;;;1.50;;
37647;SDS011;23490;53.656;10.076;2023-03-24T09:24:52;10.23;;;1.30;;
37647;SDS011;23490;53.656;10.076;2023-03-24T09:27:17;6.97;;;1.40;;
37647;SDS011;23490;53.656;10.076;2023-03-24T09:29:43;8.23;;;1.42;;
37647;SDS011;23490;53.656;10.076;2023-03-24T09:32:08;7.78;;;1.90;;
37647;SDS011;23490;53.656;10.076;2023-03-24T09:34:34;11.77;;;1.20;;
37647;SDS011;23490;53.656;10.076;2023-03-24T09:37:02;7.88;;;1.45;;
37647;SDS011;23490;53.656;10.076;2023-03-24T09:39:28;5.13;;;1.40;;
37647;SDS011;23490;53.656;10.076;2023-03-24T09:41:54;16.20;;;1.50;;
37647;SDS011;23490;53.656;10.076;2023-03-24T09:44:33;7.20;;;1.63;;
37647;SDS011;23490;53.656;10.076;2023-03-24T09:47:05;7.60;;;1.55;;
37647;SDS011;23490;53.656;10.076;2023-03-24T09:49:49;6.38;;;1.33;;
37647;SDS011;23490;53.656;10.076;2023-03-24T09:52:18;6.13;;;1.20;;
37647;SDS011;23490;53.656;10.076;2023-03-24T09:54:55;4.75;;;1.42;;
37647;SDS011;23490;53.656;10.076;2023-03-24T10:00:14;5.45;;;1.33;;
37647;SDS011;23490;53.656;10.076;2023-03-24T10:02:44;10.20;;;1.98;;
37647;SDS011;23490;53.656;10.076;2023-03-24T10:05:18;8.48;;;2.13;;
37647;SDS011;23490;53.656;10.076;2023-03-24T10:07:54;4.18;;;1.17;;
37647;SDS011;23490;53.656;10.076;2023-03-24T10:10:49;4.03;;;1.40;;
37647;SDS011;23490;53.656;10.076;2023-03-24T10:13:40;5.82;;;1.50;;
37647;SDS011;23490;53.656;10.076;2023-03-24T10:21:35;4.90;;;0.93;;
37647;SDS011;23490;53.656;10.076;2023-03-24T10:26:52;7.25;;;1.38;;
37647;SDS011;23490;53.656;10.076;2023-03-24T10:29:30;5.65;;;1.35;;
37647;SDS011;23490;53.656;10.076;2023-03-24T10:32:17;7.05;;;1.30;;
37647;SDS011;23490;53.656;10.076;2023-03-24T10:34:47;8.85;;;1.33;;
37647;SDS011;23490;53.656;10.076;2023-03-24T10:37:18;5.15;;;1.15;;
37647;SDS011;23490;53.656;10.076;2023-03-24T10:39:44;5.60;;;1.30;;
37647;SDS011;23490;53.656;10.076;2023-03-24T10:42:30;6.00;;;1.55;;
37647;SDS011;23490;53.656;10.076;2023-03-24T10:44:57;5.18;;;1.45;;
37647;SDS011;23490;53.656;10.076;2023-03-24T10:47:24;6.30;;;1.17;;
37647;SDS011;23490;53.656;10.076;2023-03-24T10:49:52;5.65;;;1.20;;
37647;SDS011;23490;53.656;10.076;2023-03-24T10:52:36;4.90;;;1.20;;
37647;SDS011;23490;53.656;10.076;2023-03-24T10:55:04;5.75;;;1.40;;
37647;SDS011;23490;53.656;10.076;2023-03-24T10:57:31;8.55;;;1.45;;
37647;SDS011;23490;53.656;10.076;2023-03-24T10:59:57;6.18;;;1.60;;
37647;SDS011;23490;53.656;10.076;2023-03-24T11:02:33;6.05;;;1.45;;
37647;SDS011;23490;53.656;10.076;2023-03-24T11:05:18;6.00;;;0.98;;
37647;SDS011;23490;53.656;10.076;2023-03-24T11:07:48;7.93;;;1.20;;
37647;SDS011;23490;53.656;10.076;2023-03-24T11:10:33;6.10;;;1.15;;
37647;SDS011;23490;53.656;10.076;2023-03-24T11:13:00;5.72;;;1.30;;
37647;SDS011;23490;53.656;10.076;2023-03-24T11:15:31;4.65;;;0.95;;
37647;SDS011;23490;53.656;10.076;2023-03-24T11:18:06;8.45;;;1.27;;
37647;SDS011;23490;53.656;10.076;2023-03-24T11:20:58;4.05;;;1.17;;
37647;SDS011;23490;53.656;10.076;2023-03-24T11:23:37;7.57;;;1.80;;
37647;SDS011;23490;53.656;10.076;2023-03-24T11:26:06;7.10;;;1.33;;
37647;SDS011;23490;53.656;10.076;2023-03-24T11:28:57;5.45;;;1.13;;
37647;SDS011;23490;53.656;10.076;2023-03-24T11:31:27;5.93;;;1.52;;
37647;SDS011;23490;53.656;10.076;2023-03-24T11:33:58;7.53;;;1.23;;
37647;SDS011;23490;53.656;10.076;2023-03-24T11:39:11;4.40;;;1.45;;
37647;SDS011;23490;53.656;10.076;2023-03-24T11:41:49;7.53;;;1.25;;
37647;SDS011;23490;53.656;10.076;2023-03-24T11:44:25;4.05;;;1.30;;
37647;SDS011;23490;53.656;10.076;2023-03-24T11:46:59;8.57;;;1.45;;
37647;SDS011;23490;53.656;10.076;2023-03-24T11:49:30;4.68;;;1.33;;
37647;SDS011;23490;53.656;10.076;2023-03-24T11:52:01;5.40;;;1.23;;
37647;SDS011;23490;53.656;10.076;2023-03-24T11:54:34;7.18;;;1.67;;
37647;SDS011;23490;53.656;10.076;2023-03-24T11:57:03;5.60;;;1.20;;
37647;SDS011;23490;53.656;10.076;2023-03-24T11:59:39;9.02;;;1.73;;
37647;SDS011;23490;53.656;10.076;2023-03-24T12:02:24;6.90;;;1.80;;
37647;SDS011;23490;53.656;10.076;2023-03-24T12:08:37;7.22;;;1.20;;
37647;SDS011;23490;53.656;10.076;2023-03-24T12:11:06;4.97;;;1.02;;
37647;SDS011;23490;53.656;10.076;2023-03-24T12:13:40;5.05;;;1.27;;
37647;SDS011;23490;53.656;10.076;2023-03-24T12:19:13;6.70;;;1.50;;
37647;SDS011;23490;53.656;10.076;2023-03-24T12:25:02;9.38;;;1.85;;
37647;SDS011;23490;53.656;10.076;2023-03-24T12:28:02;6.53;;;1.35;;
37647;SDS011;23490;53.656;10.076;2023-03-24T12:33:20;7.32;;;1.90;;
37647;SDS011;23490;53.656;10.076;2023-03-24T12:36:10;7.70;;;1.47;;
37647;SDS011;23490;53.656;10.076;2023-03-24T12:39:06;4.93;;;1.30;;
37647;SDS011;23490;53.656;10.076;2023-03-24T12:47:35;5.57;;;1.15;;
37647;SDS011;23490;53.656;10.076;2023-03-24T12:52:57;5.85;;;1.20;;
37647;SDS011;23490;53.656;10.076;2023-03-24T12:55:48;5.50;;;1.35;;
37647;SDS011;23490;53.656;10.076;2023-03-24T13:00:53;6.93;;;1.38;;
37647;SDS011;23490;53.656;10.076;2023-03-24T13:03:35;4.63;;;1.20;;
37647;SDS011;23490;53.656;10.076;2023-03-24T13:06:11;5.10;;;1.02;;
37647;SDS011;23490;53.656;10.076;2023-03-24T13:14:21;4.60;;;1.55;;
37647;SDS011;23490;53.656;10.076;2023-03-24T13:16:51;6.00;;;1.20;;
37647;SDS011;23490;53.656;10.076;2023-03-24T13:19:22;6.53;;;1.58;;
37647;SDS011;23490;53.656;10.076;2023-03-24T13:21:50;5.78;;;2.08;;
37647;SDS011;23490;53.656;10.076;2023-03-24T13:24:18;6.80;;;2.03;;
37647;SDS011;23490;53.656;10.076;2023-03-24T13:33:38;6.72;;;1.13;;
37647;SDS011;23490;53.656;10.076;2023-03-24T13:38:41;6.72;;;1.73;;
37647;SDS011;23490;53.656;10.076;2023-03-24T13:41:16;8.27;;;2.17;;
37647;SDS011;23490;53.656;10.076;2023-03-24T13:43:46;4.90;;;1.23;;
37647;SDS011;23490;53.656;10.076;2023-03-24T13:48:41;7.28;;;1.30;;
37647;SDS011;23490;53.656;10.076;2023-03-24T13:54:20;5.28;;;1.58;;
37647;SDS011;23490;53.656;10.076;2023-03-24T13:56:53;9.85;;;2.05;;
37647;SDS011;23490;53.656;10.076;2023-03-24T13:59:58;6.85;;;1.42;;
37647;SDS011;23490;53.656;10.076;2023-03-24T14:05:58;4.00;;;1.13;;
37647;SDS011;23490;53.656;10.076;2023-03-24T14:19:23;5.20;;;1.63;;
37647;SDS011;23490;53.656;10.076;2023-03-24T14:22:09;4.70;;;1.02;;
37647;SDS011;23490;53.656;10.076;2023-03-24T14:24:43;5.65;;;1.20;;
37647;SDS011;23490;53.656;10.076;2023-03-24T14:30:59;4.95;;;0.93;;
37647;SDS011;23490;53.656;10.076;2023-03-24T14:33:02;7.50;;;1.40;;
37647;SDS011;23490;53.656;10.076;2023-03-24T14:40:43;4.28;;;1.17;;
37647;SDS011;23490;53.656;10.076;2023-03-24T14:43:51;5.25;;;1.20;;
37647;SDS011;23490;53.656;10.076;2023-03-24T14:56:59;4.07;;;1.15;;
37647;SDS011;23490;53.656;10.076;2023-03-24T14:59:30;4.93;;;1.27;;
37647;SDS011;23490;53.656;10.076;2023-03-24T15:02:25;5.15;;;1.17;;
37647;SDS011;23490;53.656;10.076;2023-03-24T15:13:27;4.10;;;0.88;;
37647;SDS011;23490;53.656;10.076;2023-03-24T15:15:54;7.15;;;1.52;;
37647;SDS011;23490;53.656;10.076;2023-03-24T15:18:20;3.85;;;0.90;;
37647;SDS011;23490;53.656;10.076;2023-03-24T15:20:47;5.45;;;1.20;;
37647;SDS011;23490;53.656;10.076;2023-03-24T15:23:18;4.22;;;1.23;;
37647;SDS011;23490;53.656;10.076;2023-03-24T15:25:45;8.93;;;1.58;;
37647;SDS011;23490;53.656;10.076;2023-03-24T15:28:19;5.18;;;0.90;;
37647;SDS011;23490;53.656;10.076;2023-03-24T15:30:52;4.80;;;0.82;;
37647;SDS011;23490;53.656;10.076;2023-03-24T15:33:20;3.10;;;1.17;;
37647;SDS011;23490;53.656;10.076;2023-03-24T15:35:53;4.88;;;1.08;;
37647;SDS011;23490;53.656;10.076;2023-03-24T15:38:31;7.00;;;1.10;;
37647;SDS011;23490;53.656;10.076;2023-03-24T15:40:58;3.88;;;1.52;;
37647;SDS011;23490;53.656;10.076;2023-03-24T15:43:25;8.13;;;1.35;;
37647;SDS011;23490;53.656;10.076;2023-03-24T15:45:51;4.65;;;1.15;;
37647;SDS011;23490;53.656;10.076;2023-03-24T15:48:20;4.82;;;1.10;;
37647;SDS011;23490;53.656;10.076;2023-03-24T15:50:56;6.90;;;1.95;;
37647;SDS011;23490;53.656;10.076;2023-03-24T15:53:23;6.78;;;1.40;;
37647;SDS011;23490;53.656;10.076;2023-03-24T15:56:05;6.35;;;1.30;;
37647;SDS011;23490;53.656;10.076;2023-03-24T15:58:44;8.75;;;1.27;;
37647;SDS011;23490;53.656;10.076;2023-03-24T16:01:34;4.97;;;0.93;;
37647;SDS011;23490;53.656;10.076;2023-03-24T16:04:15;5.07;;;1.40;;
37647;SDS011;23490;53.656;10.076;2023-03-24T16:06:47;5.05;;;1.15;;
37647;SDS011;23490;53.656;10.076;2023-03-24T16:09:15;8.45;;;1.33;;
37647;SDS011;23490;53.656;10.076;2023-03-24T16:11:47;6.25;;;1.52;;
37647;SDS011;23490;53.656;10.076;2023-03-24T16:14:21;4.57;;;1.02;;
37647;SDS011;23490;53.656;10.076;2023-03-24T16:16:53;3.67;;;1.20;;
37647;SDS011;23490;53.656;10.076;2023-03-24T16:23:13;7.63;;;1.40;;
37647;SDS011;23490;53.656;10.076;2023-03-24T16:25:42;9.45;;;1.50;;
37647;SDS011;23490;53.656;10.076;2023-03-24T16:28:10;7.53;;;1.30;;
37647;SDS011;23490;53.656;10.076;2023-03-24T16:30:38;6.85;;;1.38;;
37647;SDS011;23490;53.656;10.076;2023-03-24T16:33:06;6.32;;;1.00;;
37647;SDS011;23490;53.656;10.076;2023-03-24T16:35:33;5.25;;;1.33;;
37647;SDS011;23490;53.656;10.076;2023-03-24T16:37:59;6.43;;;1.15;;
37647;SDS011;23490;53.656;10.076;2023-03-24T16:40:36;6.60;;;1.60;;
37647;SDS011;23490;53.656;10.076;2023-03-24T16:43:04;6.90;;;1.48;;
37647;SDS011;23490;53.656;10.076;2023-03-24T16:45:30;5.40;;;1.40;;
37647;SDS011;23490;53.656;10.076;2023-03-24T16:47:57;3.90;;;0.93;;
37647;SDS011;23490;53.656;10.076;2023-03-24T16:50:36;6.57;;;1.40;;
37647;SDS011;23490;53.656;10.076;2023-03-24T16:53:03;5.47;;;1.27;;
37647;SDS011;23490;53.656;10.076;2023-03-24T16:55:32;6.05;;;1.25;;
37647;SDS011;23490;53.656;10.076;2023-03-24T16:57:59;8.88;;;1.90;;
37647;SDS011;23490;53.656;10.076;2023-03-24T17:00:25;6.60;;;1.25;;
37647;SDS011;23490;53.656;10.076;2023-03-24T17:02:51;6.93;;;1.73;;
37647;SDS011;23490;53.656;10.076;2023-03-24T17:05:18;5.93;;;1.85;;
37647;SDS011;23490;53.656;10.076;2023-03-24T17:07:48;8.43;;;1.90;;
37647;SDS011;23490;53.656;10.076;2023-03-24T17:10:16;5.57;;;1.58;;
37647;SDS011;23490;53.656;10.076;2023-03-24T17:12:42;6.78;;;1.80;;
37647;SDS011;23490;53.656;10.076;2023-03-24T17:15:09;4.22;;;1.58;;
37647;SDS011;23490;53.656;10.076;2023-03-24T17:17:41;7.13;;;1.48;;
37647;SDS011;23490;53.656;10.076;2023-03-24T17:20:07;6.85;;;1.80;;
37647;SDS011;23490;53.656;10.076;2023-03-24T17:22:33;10.45;;;2.28;;
37647;SDS011;23490;53.656;10.076;2023-03-24T17:24:58;5.97;;;1.48;;
37647;SDS011;23490;53.656;10.076;2023-03-24T17:27:24;5.13;;;1.42;;
37647;SDS011;23490;53.656;10.076;2023-03-24T17:29:49;6.97;;;1.27;;
37647;SDS011;23490;53.656;10.076;2023-03-24T17:32:15;3.17;;;1.13;;